Aviation Digital Data Service (ADDS)

Output produced by METARs form (0149 UTC 21 September 2021)
found at http://aviationweather.gov/metar/data/
 
METAR text: KORF 210106Z 07011KT 10SM BKN017 BKN024 BKN030 22/20 A3025 RMK AO2 T02220200
Conditions at: KORF (NORFOLK , VA, US) observed 0106 UTC 21 September 2021
Temperature: 22.2°C (72°F)
Dewpoint: 20.0°C (68°F) [RH = 87%]
Pressure (altimeter): 30.25 inches Hg (1024.5 mb)
Winds: from the ENE (70 degrees) at 13 MPH (11 knots; 5.7 m/s)
Visibility: 10 or more miles (16+ km)
Ceiling: 1700 feet AGL
Clouds: broken clouds at 1700 feet AGL
broken clouds at 2400 feet AGL
broken clouds at 3000 feet AGL
Weather: no significant weather observed at this time

METAR text: KORF 210051Z 07009KT 10SM FEW021 22/19 A3025 RMK AO2 SLP243 T02220194
Conditions at: KORF (NORFOLK , VA, US) observed 0051 UTC 21 September 2021
Temperature: 22.2°C (72°F)
Dewpoint: 19.4°C (67°F) [RH = 84%]
Pressure (altimeter): 30.25 inches Hg (1024.5 mb)
[Sea-level pressure: 1024.3 mb]
Winds: from the ENE (70 degrees) at 10 MPH (9 knots; 4.6 m/s)
Visibility: 10 or more miles (16+ km)
Ceiling: at least 12,000 feet AGL
Clouds: few clouds at 2100 feet AGL
Weather: no significant weather observed at this time

Forecast for: KORF (NORFOLK , VA, US)
Text: KORF 202331Z 2100/2124 07009KT P6SM SCT025 BKN040
Forecast period: 0000 to 0300 UTC 21 September 2021
Forecast type: FROM: standard forecast or significant change
Winds: from the ENE (70 degrees) at 10 MPH (9 knots; 4.6 m/s)
Visibility: 6 or more miles (10+ km)
Ceiling: 4000 feet AGL
Clouds: scattered clouds at 2500 feet AGL
broken clouds at 4000 feet AGL
Weather: no significant weather forecast for this period
Text: TEMPO 2100/2102 BKN025
Forecast period: 0000 to 0200 UTC 21 September 2021
Forecast type: TEMPORARY: The following changes expected for less than half the time period
Visibility: missing
Ceiling: 2500 feet AGL
Clouds: broken clouds at 2500 feet AGL
Weather: no significant weather forecast for this period
Text: FM210300 08008KT P6SM BKN250
Forecast period: 0300 to 1600 UTC 21 September 2021
Forecast type: FROM: standard forecast or significant change
Winds: from the E (80 degrees) at 9 MPH (8 knots; 4.1 m/s)
Visibility: 6 or more miles (10+ km)
Ceiling: 25000 feet AGL
Clouds: broken clouds at 25000 feet AGL
Weather: no significant weather forecast for this period
Text: FM211600 09010KT P6SM BKN050
Forecast period: 1600 UTC 21 September 2021 to 0000 UTC 22 September 2021
Forecast type: FROM: standard forecast or significant change
Winds: from the E (90 degrees) at 12 MPH (10 knots; 5.1 m/s)
Visibility: 6 or more miles (10+ km)
Ceiling: 5000 feet AGL
Clouds: broken clouds at 5000 feet AGL
Weather: no significant weather forecast for this period